createdAt,value
2023-09-28T00:00:35.710Z,80.32
2023-09-28T00:03:05.318Z,80.40
2023-09-28T00:05:32.825Z,80.30
2023-09-28T00:08:01.735Z,80.36
2023-09-28T00:10:32.810Z,80.37
2023-09-28T00:13:00.736Z,80.59
2023-09-28T00:15:27.628Z,80.63
2023-09-28T00:17:56.240Z,80.54
2023-09-28T00:20:24.754Z,80.72
2023-09-28T00:22:53.110Z,80.52
2023-09-28T00:25:23.233Z,80.74
2023-09-28T00:27:54.295Z,80.77
2023-09-28T00:30:23.685Z,80.76
2023-09-28T00:32:53.552Z,80.92
2023-09-28T00:35:21.341Z,80.92
2023-09-28T00:37:50.583Z,80.97
2023-09-28T00:40:19.756Z,80.98
2023-09-28T00:42:49.676Z,80.86
2023-09-28T00:45:18.855Z,80.98
2023-09-28T00:47:48.481Z,81.08
2023-09-28T00:50:16.841Z,81.38
2023-09-28T00:52:47.310Z,81.14
2023-09-28T00:55:16.607Z,81.26
2023-09-28T00:57:45.651Z,81.47
2023-09-28T01:00:19.583Z,81.27
2023-09-28T01:02:52.637Z,81.61
2023-09-28T01:05:19.913Z,81.73
2023-09-28T01:07:48.037Z,81.44
2023-09-28T01:10:21.179Z,81.75
2023-09-28T01:12:49.910Z,81.76
2023-09-28T01:15:17.978Z,81.96
2023-09-28T01:17:46.522Z,81.81
2023-09-28T01:20:19.502Z,81.77
2023-09-28T01:22:51.194Z,81.92
2023-09-28T01:25:20.521Z,82.16
2023-09-28T01:27:48.842Z,82.22
2023-09-28T01:30:17.111Z,81.98
2023-09-28T01:32:45.387Z,82.30
2023-09-28T01:35:12.672Z,81.97
2023-09-28T01:37:52.549Z,82.30
2023-09-28T01:40:19.983Z,82.07
2023-09-28T01:42:47.868Z,82.17
2023-09-28T01:45:15.854Z,82.33
2023-09-28T01:47:43.815Z,82.20
2023-09-28T01:50:11.556Z,82.26
2023-09-28T01:52:39.515Z,82.38
2023-09-28T01:55:08.304Z,82.51
2023-09-28T01:57:36.086Z,82.53
2023-09-28T02:00:06.621Z,82.62
2023-09-28T02:02:35.641Z,82.71
2023-09-28T02:05:04.027Z,82.53
2023-09-28T02:07:36.498Z,82.95
2023-09-28T02:10:04.943Z,82.75
2023-09-28T02:12:34.131Z,82.71
2023-09-28T02:15:06.256Z,82.97
2023-09-28T02:17:34.094Z,82.95
2023-09-28T02:20:01.006Z,83.09
2023-09-28T02:22:28.829Z,83.11
2023-09-28T02:24:55.885Z,83.47
2023-09-28T02:27:23.673Z,83.04
2023-09-28T02:29:51.836Z,83.35
2023-09-28T02:32:19.665Z,83.01
2023-09-28T02:34:46.522Z,83.41
2023-09-28T02:37:14.899Z,83.32
2023-09-28T02:39:42.320Z,83.40
2023-09-28T02:42:10.542Z,83.37
2023-09-28T02:44:37.440Z,83.33
2023-09-28T02:47:07.358Z,83.70
2023-09-28T02:49:34.404Z,83.80
2023-09-28T02:52:03.073Z,83.76
2023-09-28T02:54:30.927Z,83.59
2023-09-28T02:56:58.982Z,83.90
2023-09-28T02:59:27.781Z,83.54
2023-09-28T03:01:56.331Z,83.94
2023-09-28T03:04:25.395Z,84.07
2023-09-28T03:06:53.678Z,84.14
2023-09-28T03:09:21.121Z,84.06
2023-09-28T03:11:50.235Z,83.71
2023-09-28T03:14:17.885Z,84.26
2023-09-28T03:16:45.750Z,83.99
2023-09-28T03:19:12.627Z,83.94
2023-09-28T03:21:43.578Z,84.46
2023-09-28T03:24:10.456Z,84.31
2023-09-28T03:26:39.167Z,84.23
2023-09-28T03:29:06.102Z,84.19
2023-09-28T03:31:36.442Z,84.18
2023-09-28T03:34:03.287Z,84.38
2023-09-28T03:36:33.368Z,84.27
2023-09-28T03:39:02.583Z,84.57
2023-09-28T03:41:32.112Z,84.44
2023-09-28T03:43:59.927Z,84.35
2023-09-28T03:46:28.374Z,84.51
2023-09-28T03:48:56.190Z,84.69
2023-09-28T03:51:24.300Z,84.74
2023-09-28T03:53:52.302Z,84.47
2023-09-28T03:56:22.587Z,84.62
2023-09-28T03:58:50.406Z,84.91
2023-09-28T04:01:18.465Z,84.70
2023-09-28T04:03:46.304Z,84.75
2023-09-28T04:06:14.271Z,84.87
2023-09-28T04:08:42.128Z,85.27
2023-09-28T04:11:10.026Z,84.99
2023-09-28T04:13:39.244Z,85.17
2023-09-28T04:16:07.091Z,85.21
2023-09-28T04:18:34.977Z,85.38
2023-09-28T04:21:02.924Z,85.29
2023-09-28T04:23:31.272Z,85.02
2023-09-28T04:25:59.114Z,85.13
2023-09-28T04:28:26.961Z,85.35
2023-09-28T04:30:56.083Z,85.32
2023-09-28T04:33:23.873Z,85.36
2023-09-28T04:35:51.743Z,85.48
2023-09-28T04:38:19.604Z,85.42
2023-09-28T04:40:47.467Z,85.26
2023-09-28T04:43:15.366Z,85.57
2023-09-28T04:45:43.244Z,85.63
2023-09-28T04:48:12.385Z,85.37
2023-09-28T04:50:40.496Z,85.42
2023-09-28T04:53:08.772Z,85.53
2023-09-28T04:55:36.570Z,85.51
2023-09-28T04:58:04.617Z,85.57
2023-09-28T05:00:33.935Z,85.46
2023-09-28T05:03:04.954Z,85.62
2023-09-28T05:05:34.619Z,86.08
2023-09-28T05:08:03.197Z,85.93
2023-09-28T05:10:31.175Z,85.62
2023-09-28T05:12:59.536Z,85.83
2023-09-28T05:15:27.385Z,86.12
2023-09-28T05:17:55.357Z,86.05
2023-09-28T05:20:25.085Z,86.18
2023-09-28T05:22:55.678Z,86.04
2023-09-28T05:25:23.590Z,86.05
2023-09-28T05:27:51.476Z,86.05
2023-09-28T05:30:19.530Z,86.04
2023-09-28T05:32:47.359Z,86.12
2023-09-28T05:35:16.273Z,86.30
2023-09-28T05:37:44.106Z,86.37
2023-09-28T05:40:14.008Z,86.24
2023-09-28T05:42:42.228Z,86.24
2023-09-28T05:45:11.372Z,86.44
2023-09-28T05:47:39.221Z,86.35
2023-09-28T05:50:08.475Z,86.35
2023-09-28T05:52:36.417Z,86.22
2023-09-28T05:55:04.775Z,86.39
2023-09-28T05:57:34.074Z,86.50
2023-09-28T06:00:08.145Z,86.58
2023-09-28T06:02:36.115Z,86.60
2023-09-28T06:05:05.696Z,86.67
2023-09-28T06:07:33.572Z,86.64
2023-09-28T06:10:01.407Z,86.71
2023-09-28T06:12:29.490Z,86.63
2023-09-28T06:14:59.854Z,86.70
2023-09-28T06:17:27.749Z,86.79
2023-09-28T06:19:58.288Z,86.94
2023-09-28T06:22:26.763Z,86.98
2023-09-28T06:24:55.937Z,87.04
2023-09-28T06:27:23.746Z,86.89
2023-09-28T06:29:54.517Z,86.89
2023-09-28T06:32:24.698Z,86.99
2023-09-28T06:34:52.756Z,87.10
2023-09-28T06:37:20.558Z,87.13
2023-09-28T06:39:48.458Z,87.16
2023-09-28T06:42:34.850Z,87.14
2023-09-28T06:45:04.902Z,87.30
2023-09-28T06:47:50.643Z,87.34
2023-09-28T06:50:21.978Z,87.17
2023-09-28T06:52:52.863Z,87.44
2023-09-28T06:55:20.832Z,87.19
2023-09-28T06:57:49.795Z,87.49
2023-09-28T07:00:18.854Z,87.49
2023-09-28T07:02:48.719Z,87.56
2023-09-28T07:05:17.712Z,87.58
2023-09-28T07:07:49.885Z,87.73
2023-09-28T07:10:18.911Z,87.58
2023-09-28T07:12:48.416Z,87.63
2023-09-28T07:15:16.264Z,87.83
2023-09-28T07:17:44.245Z,87.77
2023-09-28T07:20:16.316Z,87.82
2023-09-28T07:22:44.308Z,87.76
2023-09-28T07:25:12.224Z,87.75
2023-09-28T07:27:40.332Z,87.89
2023-09-28T07:30:09.816Z,87.95
2023-09-28T07:32:37.852Z,87.95
2023-09-28T07:35:06.792Z,87.91
2023-09-28T07:37:36.057Z,88.16
2023-09-28T07:40:05.672Z,87.87
2023-09-28T07:42:33.536Z,88.23
2023-09-28T07:45:01.334Z,88.16
2023-09-28T07:47:30.145Z,88.14
2023-09-28T07:49:58.173Z,88.17
2023-09-28T07:52:26.336Z,88.29
2023-09-28T07:54:55.896Z,88.09
2023-09-28T07:57:23.717Z,88.15
2023-09-28T07:59:51.513Z,88.48
2023-09-28T08:02:20.074Z,88.40
2023-09-28T08:04:50.714Z,88.41
2023-09-28T08:07:18.728Z,88.51
2023-09-28T08:09:46.678Z,88.33
2023-09-28T08:12:16.039Z,88.63
2023-09-28T08:14:43.887Z,88.53
2023-09-28T08:17:13.709Z,88.26
2023-09-28T08:19:41.594Z,88.60
2023-09-28T08:22:09.405Z,88.75
2023-09-28T08:24:37.237Z,88.80
2023-09-28T08:27:05.462Z,88.81
2023-09-28T08:29:35.881Z,88.90
2023-09-28T08:32:03.980Z,88.89
2023-09-28T08:34:38.742Z,88.81
2023-09-28T08:37:07.684Z,88.82
2023-09-28T08:39:37.208Z,88.84
2023-09-28T08:42:08.268Z,88.88
2023-09-28T08:44:39.701Z,88.95
2023-09-28T08:47:16.869Z,88.99
2023-09-28T08:49:46.513Z,88.84
2023-09-28T08:52:16.110Z,89.11
2023-09-28T08:54:44.289Z,89.10
2023-09-28T08:57:13.129Z,88.93
2023-09-28T08:59:43.616Z,89.10
2023-09-28T09:02:13.109Z,89.07
2023-09-28T09:04:41.088Z,89.07
2023-09-28T09:07:08.942Z,89.15
2023-09-28T09:09:38.564Z,88.96
2023-09-28T09:12:10.330Z,89.01
2023-09-28T09:14:39.061Z,88.90
2023-09-28T09:17:11.862Z,88.81
2023-09-28T09:19:41.930Z,88.97
2023-09-28T09:22:09.899Z,88.84
2023-09-28T09:24:54.976Z,88.85
2023-09-28T09:27:27.452Z,88.78
2023-09-28T09:29:58.127Z,88.70
2023-09-28T09:32:28.025Z,88.83
2023-09-28T09:34:56.536Z,88.77
2023-09-28T09:37:24.676Z,88.71
2023-09-28T09:39:52.492Z,88.71
2023-09-28T09:42:29.739Z,88.69
2023-09-28T09:44:57.601Z,88.59
2023-09-28T09:47:28.404Z,88.55
2023-09-28T09:49:58.098Z,88.44
2023-09-28T09:52:27.970Z,88.47
2023-09-28T09:54:56.009Z,88.47
2023-09-28T09:57:25.996Z,88.51
2023-09-28T09:59:55.974Z,88.37
2023-09-28T10:02:26.611Z,88.24
2023-09-28T10:04:56.761Z,88.31
2023-09-28T10:07:46.560Z,88.20
2023-09-28T10:10:16.739Z,88.23
2023-09-28T10:12:44.796Z,87.99
2023-09-28T10:15:14.255Z,87.87
2023-09-28T10:17:43.062Z,87.80
2023-09-28T10:20:14.568Z,87.86
2023-09-28T10:22:42.801Z,87.71
2023-09-28T10:25:13.248Z,87.92
2023-09-28T10:27:41.639Z,87.54
2023-09-28T10:30:20.325Z,87.28
2023-09-28T10:32:48.692Z,87.41
2023-09-28T10:35:29.498Z,87.47
2023-09-28T10:38:28.726Z,87.33
2023-09-28T10:41:08.012Z,87.11
2023-09-28T10:43:37.777Z,86.68
2023-09-28T10:46:06.894Z,86.63
2023-09-28T10:48:40.945Z,87.05
2023-09-28T10:51:14.107Z,86.48
2023-09-28T10:53:42.550Z,86.66
2023-09-28T10:56:12.211Z,86.34
2023-09-28T10:58:42.126Z,86.21
2023-09-28T11:01:10.244Z,86.08
2023-09-28T11:03:39.990Z,86.04
2023-09-28T11:06:11.193Z,85.78
2023-09-28T11:08:41.714Z,85.81
2023-09-28T11:11:09.667Z,85.98
2023-09-28T11:13:37.576Z,85.67
2023-09-28T11:16:05.954Z,85.48
2023-09-28T11:18:33.878Z,85.18
2023-09-28T11:21:04.506Z,85.29
2023-09-28T11:23:32.435Z,84.94
2023-09-28T11:26:01.851Z,84.82
2023-09-28T11:28:30.864Z,84.69
2023-09-28T11:31:10.088Z,84.72
2023-09-28T11:33:38.533Z,84.33
2023-09-28T11:36:07.279Z,84.25
2023-09-28T11:38:35.659Z,84.17
2023-09-28T11:41:06.376Z,83.93
2023-09-28T11:43:35.833Z,83.90
2023-09-28T11:46:04.611Z,83.67
2023-09-28T11:48:32.478Z,83.45
2023-09-28T11:51:00.824Z,83.42
2023-09-28T11:53:28.643Z,83.11
2023-09-28T11:55:56.619Z,83.02
2023-09-28T11:58:27.055Z,82.90
2023-09-28T12:00:55.065Z,82.45
2023-09-28T12:03:23.061Z,82.29
2023-09-28T12:05:51.002Z,82.37
2023-09-28T12:08:19.144Z,81.96
2023-09-28T12:10:46.998Z,81.95
2023-09-28T12:13:14.887Z,81.76
2023-09-28T12:15:44.141Z,81.36
2023-09-28T12:18:12.184Z,81.17
2023-09-28T12:20:40.077Z,81.11
2023-09-28T12:23:08.016Z,80.77
2023-09-28T12:25:36.657Z,80.99
2023-09-28T12:28:04.740Z,80.71
2023-09-28T12:30:33.108Z,80.19
2023-09-28T12:33:03.147Z,80.03
2023-09-28T12:35:31.035Z,79.63
2023-09-28T12:37:59.013Z,79.60
2023-09-28T12:40:26.843Z,79.59
2023-09-28T12:42:54.658Z,79.37
2023-09-28T12:45:22.584Z,79.44
2023-09-28T12:47:50.510Z,79.17
2023-09-28T12:50:20.231Z,78.48
2023-09-28T12:52:49.147Z,78.63
2023-09-28T12:55:17.047Z,78.71
2023-09-28T12:57:45.209Z,78.34
2023-09-28T13:00:14.435Z,77.92
2023-09-28T13:02:44.374Z,77.77
2023-09-28T13:05:12.916Z,77.44
2023-09-28T13:07:42.365Z,77.11
2023-09-28T13:10:13.775Z,76.88
2023-09-28T13:12:42.775Z,76.63
2023-09-28T13:15:13.205Z,76.96
2023-09-28T13:17:41.374Z,76.57
2023-09-28T13:20:12.437Z,76.56
2023-09-28T13:22:41.794Z,76.32
2023-09-28T13:25:11.012Z,75.57
2023-09-28T13:27:38.850Z,75.51
2023-09-28T13:30:12.738Z,75.88
2023-09-28T13:32:40.806Z,75.42
2023-09-28T13:35:12.088Z,74.72
2023-09-28T13:37:40.303Z,74.68
2023-09-28T13:40:18.167Z,74.51
2023-09-28T13:42:46.269Z,74.58
2023-09-28T13:45:14.355Z,74.01
2023-09-28T13:47:43.335Z,73.87
2023-09-28T13:50:12.396Z,73.91
2023-09-28T13:52:40.383Z,73.80
2023-09-28T13:55:10.613Z,73.09
2023-09-28T13:57:40.564Z,72.81
2023-09-28T14:00:15.333Z,72.93
2023-09-28T14:02:43.832Z,72.63
2023-09-28T14:05:11.962Z,72.36
2023-09-28T14:07:39.770Z,71.98
2023-09-28T14:10:10.250Z,71.73
2023-09-28T14:12:38.090Z,71.81
2023-09-28T14:15:07.934Z,71.64
2023-09-28T14:17:38.744Z,71.29
2023-09-28T14:20:11.896Z,70.98
2023-09-28T14:22:40.722Z,70.99
2023-09-28T14:25:10.920Z,70.73
2023-09-28T14:27:38.799Z,70.11
2023-09-28T14:30:07.997Z,70.42
2023-09-28T14:32:36.606Z,69.92
2023-09-28T14:35:05.189Z,69.58
2023-09-28T14:37:33.663Z,69.36
2023-09-28T14:40:01.871Z,69.15
2023-09-28T14:42:32.898Z,69.37
2023-09-28T14:45:00.960Z,68.68
2023-09-28T14:47:29.327Z,68.90
2023-09-28T14:49:58.492Z,68.46
2023-09-28T14:52:26.310Z,68.03
2023-09-28T14:54:54.084Z,67.96
2023-09-28T14:57:21.847Z,67.94
2023-09-28T14:59:51.255Z,67.64
2023-09-28T15:02:19.194Z,67.72
2023-09-28T15:04:47.049Z,67.75
2023-09-28T15:07:14.814Z,67.07
2023-09-28T15:09:43.174Z,67.04
2023-09-28T15:12:11.015Z,66.72
2023-09-28T15:14:39.593Z,66.97
2023-09-28T15:17:08.800Z,66.41
2023-09-28T15:19:36.642Z,66.57
2023-09-28T15:22:04.829Z,66.06
2023-09-28T15:24:34.075Z,66.33
2023-09-28T15:27:01.980Z,65.75
2023-09-28T15:29:29.881Z,66.08
2023-09-28T15:31:58.103Z,65.50
2023-09-28T15:34:27.338Z,65.48
2023-09-28T15:36:55.212Z,65.73
2023-09-28T15:39:23.021Z,65.61
2023-09-28T15:41:50.933Z,65.44
2023-09-28T15:44:18.822Z,65.04
2023-09-28T15:46:47.125Z,65.02
2023-09-28T15:49:15.923Z,65.14
2023-09-28T15:51:45.242Z,64.95
2023-09-28T15:54:13.161Z,64.71
2023-09-28T15:56:41.031Z,64.34
2023-09-28T15:59:09.014Z,64.62
2023-09-28T16:01:38.651Z,64.31
2023-09-28T16:04:07.561Z,64.30
2023-09-28T16:06:35.533Z,64.34
2023-09-28T16:09:05.398Z,63.96
2023-09-28T16:11:33.331Z,63.86
2023-09-28T16:14:01.363Z,64.01
2023-09-28T16:16:29.548Z,63.72
2023-09-28T16:18:57.494Z,63.83
2023-09-28T16:21:25.379Z,63.62
2023-09-28T16:23:54.863Z,63.44
2023-09-28T16:26:25.271Z,63.62
2023-09-28T16:28:53.343Z,63.52
2023-09-28T16:31:21.163Z,63.54
2023-09-28T16:33:49.023Z,63.33
2023-09-28T16:36:16.845Z,63.25
2023-09-28T16:38:44.751Z,63.41
2023-09-28T16:41:12.666Z,63.44
2023-09-28T16:43:41.876Z,63.26
2023-09-28T16:46:09.739Z,63.26
2023-09-28T16:48:38.011Z,63.19
2023-09-28T16:51:05.897Z,63.19
2023-09-28T16:53:33.719Z,63.53
2023-09-28T16:56:01.618Z,63.46
2023-09-28T16:58:29.545Z,63.21
2023-09-28T17:00:59.267Z,63.64
2023-09-28T17:03:27.421Z,63.18
2023-09-28T17:05:55.329Z,63.58
2023-09-28T17:08:23.237Z,63.54
2023-09-28T17:10:52.221Z,63.77
2023-09-28T17:13:20.067Z,63.85
2023-09-28T17:15:49.720Z,63.59
2023-09-28T17:18:21.768Z,63.80
2023-09-28T17:20:50.541Z,63.59
2023-09-28T17:23:18.567Z,64.05
2023-09-28T17:25:46.665Z,63.98
2023-09-28T17:28:14.552Z,64.07
2023-09-28T17:30:42.487Z,64.05
2023-09-28T17:33:10.815Z,63.87
2023-09-28T17:35:40.082Z,63.97
2023-09-28T17:38:08.060Z,64.00
2023-09-28T17:40:35.937Z,64.05
2023-09-28T17:43:04.414Z,64.48
2023-09-28T17:45:33.743Z,64.22
2023-09-28T17:48:01.806Z,64.35
2023-09-28T17:50:29.762Z,64.39
2023-09-28T17:52:59.082Z,64.38
2023-09-28T17:55:26.865Z,64.53
2023-09-28T17:57:55.072Z,64.86
2023-09-28T18:00:23.194Z,64.79
2023-09-28T18:02:51.184Z,64.81
2023-09-28T18:05:19.111Z,65.20
2023-09-28T18:07:46.895Z,65.17
2023-09-28T18:10:17.069Z,65.27
2023-09-28T18:12:45.456Z,65.21
2023-09-28T18:15:14.320Z,65.48
2023-09-28T18:17:42.263Z,65.50
2023-09-28T18:20:10.703Z,65.61
2023-09-28T18:22:38.845Z,65.78
2023-09-28T18:25:09.016Z,65.66
2023-09-28T18:27:38.205Z,65.90
2023-09-28T18:30:09.797Z,65.86
2023-09-28T18:32:37.843Z,66.26
2023-09-28T18:35:07.709Z,66.08
2023-09-28T18:37:35.897Z,66.20
2023-09-28T18:40:03.791Z,66.26
2023-09-28T18:42:31.686Z,66.36
2023-09-28T18:45:01.360Z,66.48
2023-09-28T18:47:29.718Z,66.56
2023-09-28T18:49:58.405Z,66.46
2023-09-28T18:52:26.230Z,66.71
2023-09-28T18:54:54.077Z,66.85
2023-09-28T18:57:22.455Z,66.92
2023-09-28T18:59:50.757Z,67.06
2023-09-28T19:02:20.057Z,67.10
2023-09-28T19:04:48.020Z,67.26
2023-09-28T19:07:21.295Z,67.31
2023-09-28T19:09:49.282Z,67.57
2023-09-28T19:12:17.165Z,67.70
2023-09-28T19:14:45.208Z,67.64
2023-09-28T19:17:13.186Z,67.76
2023-09-28T19:19:42.541Z,67.78
2023-09-28T19:22:10.361Z,67.87
2023-09-28T19:24:38.452Z,68.06
2023-09-28T19:27:07.531Z,68.10
2023-09-28T19:29:35.413Z,68.14
2023-09-28T19:32:03.240Z,68.29
2023-09-28T19:34:31.095Z,68.52
2023-09-28T19:37:00.441Z,68.58
2023-09-28T19:39:30.046Z,68.63
2023-09-28T19:41:57.996Z,68.76
2023-09-28T19:44:26.612Z,68.96
2023-09-28T19:46:54.495Z,68.89
2023-09-28T19:49:22.947Z,69.07
2023-09-28T19:51:51.312Z,69.09
2023-09-28T19:54:20.453Z,69.20
2023-09-28T19:56:48.491Z,69.47
2023-09-28T19:59:16.872Z,69.48
2023-09-28T20:01:45.133Z,69.52
2023-09-28T20:04:13.012Z,69.76
2023-09-28T20:06:40.842Z,69.94
2023-09-28T20:09:08.707Z,69.92
2023-09-28T20:11:38.807Z,70.06
2023-09-28T20:14:06.650Z,70.25
2023-09-28T20:16:34.558Z,70.31
2023-09-28T20:19:02.443Z,70.31
2023-09-28T20:21:30.217Z,70.52
2023-09-28T20:23:58.614Z,70.43
2023-09-28T20:26:26.797Z,70.78
2023-09-28T20:28:56.077Z,70.82
2023-09-28T20:31:23.897Z,71.13
2023-09-28T20:33:53.057Z,70.85
2023-09-28T20:36:21.311Z,70.98
2023-09-28T20:38:49.221Z,71.34
2023-09-28T20:41:17.051Z,71.21
2023-09-28T20:43:44.895Z,71.39
2023-09-28T20:46:18.048Z,71.64
2023-09-28T20:48:46.343Z,71.61
2023-09-28T20:51:15.367Z,71.76
2023-09-28T20:53:43.314Z,71.80
2023-09-28T20:56:15.457Z,71.88
2023-09-28T20:58:44.004Z,72.01
2023-09-28T21:01:12.078Z,72.15
2023-09-28T21:03:41.561Z,72.25
2023-09-28T21:06:11.453Z,72.64
2023-09-28T21:08:40.655Z,72.44
2023-09-28T21:11:08.714Z,72.80
2023-09-28T21:13:36.564Z,72.68
2023-09-28T21:16:04.588Z,72.86
2023-09-28T21:18:32.682Z,72.96
2023-09-28T21:21:01.974Z,73.17
2023-09-28T21:23:29.886Z,72.90
2023-09-28T21:25:57.739Z,73.26
2023-09-28T21:28:25.584Z,73.09
2023-09-28T21:30:53.368Z,73.56
2023-09-28T21:33:21.337Z,73.61
2023-09-28T21:35:49.269Z,73.73
2023-09-28T21:38:18.507Z,73.66
2023-09-28T21:40:46.373Z,73.84
2023-09-28T21:43:14.172Z,73.90
2023-09-28T21:45:42.014Z,73.95
2023-09-28T21:48:09.891Z,74.10
2023-09-28T21:50:37.813Z,74.29
2023-09-28T21:53:06.009Z,74.30
2023-09-28T21:55:35.179Z,74.45
2023-09-28T21:58:03.004Z,74.45
2023-09-28T22:00:36.644Z,74.56
2023-09-28T22:06:36.085Z,74.83
2023-09-28T22:09:06.387Z,75.00
2023-09-28T22:11:34.573Z,74.99
2023-09-28T22:14:03.038Z,74.97
2023-09-28T22:16:30.989Z,75.11
2023-09-28T22:18:59.114Z,75.17
2023-09-28T22:21:27.532Z,75.49
2023-09-28T22:23:57.280Z,75.45
2023-09-28T22:26:25.225Z,75.36
2023-09-28T22:28:53.260Z,75.50
2023-09-28T22:31:21.290Z,75.67
2023-09-28T22:33:49.222Z,75.58
2023-09-28T22:36:17.036Z,75.81
2023-09-28T22:38:45.133Z,75.83
2023-09-28T22:41:16.867Z,75.91
2023-09-28T22:43:44.911Z,76.04
2023-09-28T22:46:12.772Z,76.16
2023-09-28T22:48:40.686Z,76.16
2023-09-28T22:51:08.510Z,76.30
2023-09-28T22:53:36.987Z,76.46
2023-09-28T22:56:04.890Z,76.47
2023-09-28T22:58:34.121Z,76.38
2023-09-28T23:01:01.936Z,76.56
2023-09-28T23:03:29.894Z,76.60
2023-09-28T23:05:57.787Z,76.66
2023-09-28T23:08:25.677Z,76.83
2023-09-28T23:10:55.345Z,76.76
2023-09-28T23:13:23.197Z,76.86
2023-09-28T23:15:52.392Z,77.01
2023-09-28T23:18:20.306Z,77.05
2023-09-28T23:20:48.220Z,77.20
2023-09-28T23:23:16.855Z,77.23
2023-09-28T23:25:44.872Z,77.24
2023-09-28T23:28:12.693Z,77.37
2023-09-28T23:30:40.809Z,77.51
2023-09-28T23:33:10.293Z,77.49
2023-09-28T23:35:38.877Z,77.50
2023-09-28T23:38:07.931Z,77.66
2023-09-28T23:40:35.778Z,77.71
2023-09-28T23:43:03.885Z,77.73
2023-09-28T23:45:35.184Z,77.88
2023-09-28T23:48:05.494Z,77.93
2023-09-28T23:50:35.911Z,77.91
2023-09-28T23:53:06.450Z,78.01
2023-09-28T23:55:35.177Z,78.10
2023-09-28T23:58:03.510Z,78.16
